Time;durP1;ratioP1;P1;durP2;ratioP2;P2;SDS_P1;SDS_P2;PMS_P1;PMS_P2;Temp;Humidity;BMP_temperature;BMP_pressure;BME280_temperature;BME280_humidity;BME280_pressure;Samples;Min_cycle;Max_cycle;Signal;HPM_P1;HPM_P2
2023/08/18 00:01:56;;;;;;;20.50;13.35;;;;;;;-148.88;100.00;-17125.47;4994825;28;20033;-85
2023/08/18 00:04:21;;;;;;;24.88;14.32;;;;;;;-148.88;100.00;-17125.47;4993402;28;20025;-85
2023/08/18 00:06:47;;;;;;;25.15;14.73;;;;;;;-148.88;100.00;-17125.47;4994305;28;20117;-87
2023/08/18 00:09:12;;;;;;;28.50;15.23;;;;;;;-148.88;100.00;-17125.47;4994264;28;20124;-85
2023/08/18 00:11:37;;;;;;;28.10;15.50;;;;;;;-148.88;100.00;-17125.47;4993629;28;20029;-85
2023/08/18 00:14:03;;;;;;;23.23;13.75;;;;;;;-148.88;100.00;-17125.47;4992980;28;20060;-86
2023/08/18 00:16:28;;;;;;;21.77;13.65;;;;;;;-148.88;100.00;-17125.47;4993168;28;20112;-84
2023/08/18 00:18:54;;;;;;;25.83;14.23;;;;;;;-148.88;100.00;-17125.47;4994237;28;20030;-85
2023/08/18 00:21:19;;;;;;;23.45;14.68;;;;;;;-148.88;100.00;-17125.47;4992980;28;20084;-85
2023/08/18 00:23:44;;;;;;;26.55;13.55;;;;;;;-148.88;100.00;-17125.47;4993092;28;20497;-85
2023/08/18 00:26:10;;;;;;;27.73;14.70;;;;;;;-148.88;100.00;-17125.47;4992711;28;20405;-85
2023/08/18 00:28:36;;;;;;;18.73;12.27;;;;;;;-148.88;100.00;-17125.47;4992257;28;20049;-84
2023/08/18 00:31:02;;;;;;;28.63;14.82;;;;;;;-148.88;100.00;-17125.47;4992821;28;20028;-84
2023/08/18 00:33:27;;;;;;;24.92;14.85;;;;;;;-148.88;100.00;-17125.47;4992791;28;20026;-84
2023/08/18 00:35:52;;;;;;;25.60;15.00;;;;;;;-148.88;100.00;-17125.47;4992666;28;20042;-85
2023/08/18 00:38:18;;;;;;;24.15;13.88;;;;;;;-148.88;100.00;-17125.47;4994043;28;20073;-85
2023/08/18 00:40:43;;;;;;;19.77;13.75;;;;;;;-148.88;100.00;-17125.47;4993878;28;20022;-84
2023/08/18 00:43:08;;;;;;;22.30;13.18;;;;;;;-148.88;100.00;-17125.47;4992856;28;20024;-84
2023/08/18 00:45:34;;;;;;;22.15;12.70;;;;;;;-148.88;100.00;-17125.47;4994182;28;20504;-84
2023/08/18 00:48:00;;;;;;;25.35;13.77;;;;;;;-148.88;100.00;-17125.47;4992654;28;20026;-85
2023/08/18 00:50:25;;;;;;;20.85;12.98;;;;;;;-148.88;100.00;-17125.47;4993683;28;20034;-84
2023/08/18 00:52:57;;;;;;;23.67;12.82;;;;;;;-148.88;100.00;-17125.47;4992480;28;20624;-85
2023/08/18 00:55:23;;;;;;;22.60;13.82;;;;;;;-148.88;100.00;-17125.47;4994090;28;20474;-84
2023/08/18 00:57:49;;;;;;;24.08;13.95;;;;;;;-148.88;100.00;-17125.47;4993800;28;20033;-84
2023/08/18 01:00:15;;;;;;;22.75;13.32;;;;;;;-148.88;100.00;-17125.47;4992425;28;20022;-84
2023/08/18 01:02:40;;;;;;;25.00;13.75;;;;;;;-148.88;100.00;-17125.47;4992463;28;20022;-84
2023/08/18 01:05:06;;;;;;;30.35;15.30;;;;;;;-148.88;100.00;-17125.47;4993712;28;20037;-84
2023/08/18 01:07:31;;;;;;;23.25;14.82;;;;;;;-148.88;100.00;-17125.47;4993750;28;20099;-84
2023/08/18 01:09:56;;;;;;;28.75;16.27;;;;;;;-148.88;100.00;-17125.47;4993952;28;20030;-84
2023/08/18 01:12:45;;;;;;;25.98;16.23;;;;;;;-148.88;100.00;-17125.47;4993684;28;20029;-84
2023/08/18 01:15:16;;;;;;;28.25;16.33;;;;;;;-148.88;100.00;-17125.47;4992947;28;20033;-84
2023/08/18 01:17:49;;;;;;;29.45;16.25;;;;;;;-148.88;100.00;-17125.47;4993585;28;20090;-83
2023/08/18 01:20:15;;;;;;;;;;;;;;;-148.88;100.00;-17125.47;4992976;28;20077;-84
2023/08/18 01:22:43;;;;;;;28.27;16.95;;;;;;;-148.88;100.00;-17125.47;4994040;28;19913;-83
2023/08/18 01:25:08;;;;;;;25.45;15.55;;;;;;;-148.88;100.00;-17125.47;4992401;28;20026;-85
2023/08/18 01:27:34;;;;;;;27.50;17.02;;;;;;;-148.88;100.00;-17125.47;4993522;28;20029;-84
2023/08/18 01:30:00;;;;;;;28.98;16.75;;;;;;;-148.88;100.00;-17125.47;4992289;28;20030;-84
2023/08/18 01:32:30;;;;;;;28.58;16.50;;;;;;;-148.88;100.00;-17125.47;4993459;28;20018;-84
2023/08/18 01:35:00;;;;;;;26.52;15.85;;;;;;;-148.88;100.00;-17125.47;4993516;28;20512;-84
2023/08/18 01:37:27;;;;;;;26.85;15.50;;;;;;;-148.88;100.00;-17125.47;4993241;28;20104;-84
2023/08/18 01:39:54;;;;;;;27.55;15.52;;;;;;;-148.88;100.00;-17125.47;4997311;28;20031;-84
2023/08/18 01:42:20;;;;;;;28.35;17.33;;;;;;;-148.88;100.00;-17125.47;4996131;28;20028;-84
2023/08/18 01:44:45;;;;;;;27.00;16.73;;;;;;;-148.88;100.00;-17125.47;4996338;28;20090;-83
2023/08/18 01:47:11;;;;;;;31.92;17.80;;;;;;;-148.88;100.00;-17125.47;4996654;28;20030;-82
2023/08/18 01:49:36;;;;;;;36.90;17.50;;;;;;;-148.88;100.00;-17125.47;4995505;28;20520;-84
2023/08/18 01:52:01;;;;;;;34.50;17.25;;;;;;;-148.88;100.00;-17125.47;4995864;28;20029;-84
2023/08/18 01:54:27;;;;;;;35.08;18.50;;;;;;;-148.88;100.00;-17125.47;4996558;28;20057;-83
2023/08/18 01:56:52;;;;;;;34.35;18.27;;;;;;;-148.88;100.00;-17125.47;4996684;28;20440;-85
2023/08/18 01:59:18;;;;;;;33.28;18.45;;;;;;;-148.88;100.00;-17125.47;4997999;28;20042;-86
2023/08/18 02:01:43;;;;;;;32.60;18.33;;;;;;;-148.88;100.00;-17125.47;4995803;28;20026;-85
2023/08/18 02:04:08;;;;;;;34.17;18.27;;;;;;;-148.88;100.00;-17125.47;4995545;28;20014;-85
2023/08/18 02:06:35;;;;;;;34.80;17.40;;;;;;;-148.88;100.00;-17125.47;4996627;28;20061;-85
2023/08/18 02:09:00;;;;;;;33.25;18.23;;;;;;;-148.88;100.00;-17125.47;4995685;28;20030;-84
2023/08/18 02:11:25;;;;;;;31.13;17.17;;;;;;;-148.88;100.00;-17125.47;4995326;28;20030;-84
2023/08/18 02:13:51;;;;;;;33.92;18.15;;;;;;;-148.88;100.00;-17125.47;4995100;28;20054;-84
2023/08/18 02:16:17;;;;;;;35.45;17.95;;;;;;;-148.88;100.00;-17125.47;4995252;28;20080;-83
2023/08/18 02:18:42;;;;;;;35.10;16.73;;;;;;;-148.88;100.00;-17125.47;4997652;28;20026;-83
2023/08/18 02:21:07;;;;;;;33.55;16.45;;;;;;;-148.88;100.00;-17125.47;4999207;28;20385;-83
2023/08/18 02:23:36;;;;;;;34.65;17.45;;;;;;;-148.88;100.00;-17125.47;4997139;28;20022;-83
2023/08/18 02:26:03;;;;;;;33.45;16.80;;;;;;;-148.88;100.00;-17125.47;4996183;28;20034;-83
2023/08/18 02:28:29;;;;;;;42.20;17.90;;;;;;;-148.88;100.00;-17125.47;4997418;28;20029;-83
2023/08/18 02:31:12;;;;;;;35.30;17.17;;;;;;;-148.88;100.00;-17125.47;4996377;28;20026;-83
2023/08/18 02:33:38;;;;;;;35.05;17.35;;;;;;;-148.88;100.00;-17125.47;4997381;28;20401;-83
2023/08/18 02:36:04;;;;;;;32.63;16.85;;;;;;;-148.88;100.00;-17125.47;4999698;28;20113;-83
2023/08/18 02:38:30;;;;;;;48.58;18.70;;;;;;;-148.88;100.00;-17125.47;4998888;28;20432;-83
2023/08/18 02:40:56;;;;;;;34.13;17.70;;;;;;;-148.88;100.00;-17125.47;4996954;28;20065;-83
2023/08/18 02:43:23;;;;;;;45.13;18.38;;;;;;;-148.88;100.00;-17125.47;4997226;28;20073;-83
2023/08/18 02:45:48;;;;;;;49.47;17.73;;;;;;;-148.88;100.00;-17125.47;4998381;28;20027;-83
2023/08/18 02:48:16;;;;;;;39.63;17.58;;;;;;;-148.88;100.00;-17125.47;4997033;28;20482;-83
2023/08/18 02:50:41;;;;;;;36.58;16.75;;;;;;;-148.88;100.00;-17125.47;5006413;23;20482;-86
2023/08/18 02:53:07;;;;;;;42.47;18.13;;;;;;;-148.88;100.00;-17125.47;4994596;28;20036;-86
2023/08/18 02:55:34;;;;;;;41.05;18.10;;;;;;;-148.88;100.00;-17125.47;4996057;28;20037;-87
2023/08/18 02:58:01;;;;;;;29.80;15.65;;;;;;;-148.88;100.00;-17125.47;4997101;28;20022;-87
2023/08/18 03:00:26;;;;;;;33.42;16.63;;;;;;;-148.88;100.00;-17125.47;4993746;28;20030;-87
2023/08/18 03:02:52;;;;;;;37.95;17.75;;;;;;;-148.88;100.00;-17125.47;4976078;28;20508;-87
2023/08/18 03:05:18;;;;;;;35.22;17.05;;;;;;;-148.88;100.00;-17125.47;4991505;28;20046;-87
2023/08/18 03:07:51;;;;;;;37.38;17.77;;;;;;;-148.88;100.00;-17125.47;4974995;28;20061;-87
2023/08/18 03:10:17;;;;;;;40.88;18.27;;;;;;;-148.88;100.00;-17125.47;4992365;28;20077;-87
2023/08/18 03:12:42;;;;;;;44.85;18.70;;;;;;;-148.88;100.00;-17125.47;4991316;28;20023;-87
2023/08/18 03:15:08;;;;;;;47.60;17.90;;;;;;;-148.88;100.00;-17125.47;4974819;28;20031;-87
2023/08/18 03:17:34;;;;;;;40.50;18.23;;;;;;;-148.88;100.00;-17125.47;4990977;28;20319;-87
2023/08/18 03:19:59;;;;;;;40.45;18.05;;;;;;;-148.88;100.00;-17125.47;4990712;28;20026;-87
2023/08/18 03:22:26;;;;;;;58.80;19.75;;;;;;;-148.88;100.00;-17125.47;4990808;28;20026;-87
2023/08/18 03:24:51;;;;;;;39.17;18.55;;;;;;;-148.88;100.00;-17125.47;4975667;28;20027;-87
2023/08/18 03:27:34;;;;;;;48.38;20.20;;;;;;;-148.88;100.00;-17125.47;4990977;28;20132;-87
2023/08/18 03:29:59;;;;;;;46.95;18.77;;;;;;;-148.88;100.00;-17125.47;4991044;28;20037;-87
2023/08/18 03:32:25;;;;;;;41.45;18.95;;;;;;;-148.88;100.00;-17125.47;4974317;28;20026;-87
2023/08/18 03:34:54;;;;;;;53.83;19.63;;;;;;;-148.88;100.00;-17125.47;4990418;28;20062;-87
2023/08/18 03:37:20;;;;;;;42.65;19.75;;;;;;;-148.88;100.00;-17125.47;4990676;28;20026;-86
2023/08/18 03:39:45;;;;;;;39.58;19.38;;;;;;;-148.88;100.00;-17125.47;4990888;28;20033;-86
2023/08/18 03:42:11;;;;;;;67.10;21.58;;;;;;;-148.88;100.00;-17125.47;4974508;28;20031;-86
2023/08/18 03:44:37;;;;;;;39.00;19.88;;;;;;;-148.88;100.00;-17125.47;4974391;28;20478;-86
2023/08/18 03:47:02;;;;;;;49.95;21.02;;;;;;;-148.88;100.00;-17125.47;4990379;28;20041;-86
2023/08/18 03:49:28;;;;;;;41.40;19.65;;;;;;;-148.88;100.00;-17125.47;4990550;28;20032;-86
2023/08/18 03:51:53;;;;;;;45.17;21.38;;;;;;;-148.88;100.00;-17125.47;4990149;28;20026;-85
2023/08/18 03:54:19;;;;;;;49.38;21.08;;;;;;;-148.88;100.00;-17125.47;4990301;28;20042;-86
2023/08/18 03:56:44;;;;;;;44.83;20.30;;;;;;;-148.88;100.00;-17125.47;4975654;28;20406;-86
2023/08/18 03:59:16;;;;;;;47.92;22.08;;;;;;;-148.88;100.00;-17125.47;4990589;28;20022;-86
2023/08/18 04:02:20;;;;;;;42.80;20.80;;;;;;;-148.88;100.00;-17125.47;4989452;28;20031;-86
2023/08/18 04:04:38;;;;;;;42.67;21.27;;;;;;;-148.88;100.00;-17125.47;4974778;28;20034;-86
2023/08/18 04:07:04;;;;;;;48.20;21.38;;;;;;;-148.88;100.00;-17125.47;4990015;28;20049;-86
2023/08/18 04:09:29;;;;;;;60.60;23.23;;;;;;;-148.88;100.00;-17125.47;4990229;28;20022;-87
2023/08/18 04:11:55;;;;;;;86.38;23.70;;;;;;;-148.88;100.00;-17125.47;4973760;28;20033;-86
2023/08/18 04:14:20;;;;;;;49.20;23.75;;;;;;;-148.88;100.00;-17125.47;4974630;28;20033;-87
2023/08/18 04:16:45;;;;;;;43.45;22.30;;;;;;;-148.88;100.00;-17125.47;4990090;28;20097;-87
2023/08/18 04:19:12;;;;;;;48.67;23.92;;;;;;;-148.88;100.00;-17125.47;4990473;28;20030;-87
2023/08/18 04:21:37;;;;;;;72.28;23.95;;;;;;;-148.88;100.00;-17125.47;4990168;28;20019;-87
2023/08/18 04:24:03;;;;;;;60.13;24.20;;;;;;;-148.88;100.00;-17125.47;4974098;28;20033;-86
2023/08/18 04:26:29;;;;;;;59.75;23.83;;;;;;;-148.88;100.00;-17125.47;4991056;28;20034;-86
2023/08/18 04:28:54;;;;;;;64.25;25.02;;;;;;;-148.88;100.00;-17125.47;4975951;28;20094;-86
2023/08/18 04:31:20;;;;;;;53.67;24.17;;;;;;;-148.88;100.00;-17125.47;4991483;28;20073;-87
2023/08/18 04:33:45;;;;;;;58.38;24.70;;;;;;;-148.88;100.00;-17125.47;4990432;28;20033;-86
2023/08/18 04:36:11;;;;;;;61.28;23.10;;;;;;;-148.88;100.00;-17125.47;4989932;28;20401;-86
2023/08/18 04:38:36;;;;;;;100.55;26.30;;;;;;;-148.88;100.00;-17125.47;4989641;28;20018;-88
2023/08/18 04:41:02;;;;;;;54.05;24.33;;;;;;;-148.88;100.00;-17125.47;4990298;28;20023;-88
2023/08/18 04:43:29;;;;;;;54.97;24.30;;;;;;;-148.88;100.00;-17125.47;4990217;28;20062;-88
2023/08/18 04:46:07;;;;;;;54.65;23.63;;;;;;;-148.88;100.00;-17125.47;4990137;28;20025;-87
2023/08/18 04:48:33;;;;;;;48.72;23.45;;;;;;;-148.88;100.00;-17125.47;4989926;28;20039;-86
2023/08/18 04:50:58;;;;;;;62.25;24.73;;;;;;;-148.88;100.00;-17125.47;4989953;28;20030;-85
2023/08/18 04:53:24;;;;;;;56.85;24.48;;;;;;;-148.88;100.00;-17125.47;4990109;28;20053;-85
2023/08/18 04:55:49;;;;;;;50.70;24.08;;;;;;;-148.88;100.00;-17125.47;4990248;28;20050;-86
2023/08/18 04:58:15;;;;;;;44.47;23.60;;;;;;;-148.88;100.00;-17125.47;4990332;28;20022;-85
2023/08/18 05:00:44;;;;;;;49.83;25.25;;;;;;;-148.88;100.00;-17125.47;4973460;28;20019;-84
2023/08/18 05:03:11;;;;;;;44.45;23.35;;;;;;;-148.88;100.00;-17125.47;4989934;28;20019;-85
2023/08/18 05:06:03;;;;;;;58.88;25.75;;;;;;;-148.88;100.00;-17125.47;4989971;28;20022;-86
2023/08/18 05:08:29;;;;;;;51.70;25.42;;;;;;;-148.88;100.00;-17125.47;4969351;28;20063;-85
2023/08/18 05:10:56;;;;;;;57.13;25.17;;;;;;;-148.88;100.00;-17125.47;4973350;28;20490;-86
2023/08/18 05:13:22;;;;;;;54.65;25.35;;;;;;;-148.88;100.00;-17125.47;4991122;28;20493;-87
2023/08/18 05:15:48;;;;;;;55.85;25.27;;;;;;;-148.88;100.00;-17125.47;4993665;28;20065;-85
2023/08/18 05:18:14;;;;;;;50.13;24.02;;;;;;;-148.88;100.00;-17125.47;4977298;28;20036;-86
2023/08/18 05:20:39;;;;;;;54.85;25.67;;;;;;;-148.88;100.00;-17125.47;4993994;28;20031;-85
2023/08/18 05:23:05;;;;;;;57.35;27.00;;;;;;;-148.88;100.00;-17125.47;4978713;28;20560;-85
2023/08/18 05:25:31;;;;;;;49.65;26.52;;;;;;;-148.88;100.00;-17125.47;4978340;28;20038;-86
2023/08/18 05:27:57;;;;;;;56.05;26.50;;;;;;;-148.88;100.00;-17125.47;4977451;28;20019;-85
2023/08/18 05:30:23;;;;;;;71.10;26.98;;;;;;;-148.88;100.00;-17125.47;4994125;28;20029;-85
2023/08/18 05:32:48;;;;;;;55.55;25.98;;;;;;;-148.88;100.00;-17125.47;4977356;28;20018;-86
2023/08/18 05:35:13;;;;;;;55.47;25.30;;;;;;;-148.88;100.00;-17125.47;4978926;28;20146;-86
2023/08/18 05:37:39;;;;;;;52.63;25.60;;;;;;;-148.88;100.00;-17125.47;4978008;28;20402;-86
2023/08/18 05:40:05;;;;;;;52.72;26.35;;;;;;;-148.88;100.00;-17125.47;4992996;28;20069;-87
2023/08/18 05:42:31;;;;;;;60.97;25.85;;;;;;;-148.88;100.00;-17125.47;4978062;28;20019;-85
2023/08/18 05:44:56;;;;;;;55.42;25.67;;;;;;;-148.88;100.00;-17125.47;4976944;28;20023;-86
2023/08/18 05:47:21;;;;;;;52.47;25.42;;;;;;;-148.88;100.00;-17125.47;4993312;28;20023;-87
2023/08/18 05:49:47;;;;;;;53.63;25.77;;;;;;;-148.88;100.00;-17125.47;4992597;28;20026;-85
2023/08/18 05:52:15;;;;;;;53.50;25.52;;;;;;;-148.88;100.00;-17125.47;4993207;28;20037;-90
2023/08/18 05:54:41;;;;;;;58.28;26.45;;;;;;;-148.88;100.00;-17125.47;4992792;28;20504;-85
2023/08/18 05:57:06;;;;;;;51.13;25.52;;;;;;;-148.88;100.00;-17125.47;4976822;28;20109;-85
2023/08/18 05:59:32;;;;;;;47.75;24.52;;;;;;;-148.88;100.00;-17125.47;4992908;28;20029;-88
2023/08/18 06:01:58;;;;;;;56.13;25.45;;;;;;;-148.88;100.00;-17125.47;4993500;28;20114;-85
2023/08/18 06:04:23;;;;;;;51.10;24.63;;;;;;;-148.88;100.00;-17125.47;4992919;28;20030;-86
2023/08/18 06:06:49;;;;;;;54.22;24.95;;;;;;;-148.88;100.00;-17125.47;4992977;28;20438;-86
2023/08/18 06:09:14;;;;;;;52.42;24.67;;;;;;;-148.88;100.00;-17125.47;4978349;28;20033;-88
2023/08/18 06:11:41;;;;;;;51.00;24.48;;;;;;;-148.88;100.00;-17125.47;4978687;28;20033;-87
2023/08/18 06:14:06;;;;;;;53.13;25.73;;;;;;;-148.88;100.00;-17125.47;4976606;28;20031;-86
2023/08/18 06:16:32;;;;;;;59.40;26.42;;;;;;;-148.88;100.00;-17125.47;4980312;28;20134;-87
2023/08/18 06:18:57;;;;;;;53.90;25.83;;;;;;;-148.88;100.00;-17125.47;4998450;28;20081;-86
2023/08/18 06:21:22;;;;;;;66.78;27.20;;;;;;;-148.88;100.00;-17125.47;4992686;28;20070;-86
2023/08/18 06:23:48;;;;;;;75.80;28.05;;;;;;;-148.88;100.00;-17125.47;4976223;28;20482;-86
2023/08/18 06:26:13;;;;;;;59.67;25.90;;;;;;;-148.88;100.00;-17125.47;4975379;28;20077;-88
2023/08/18 06:28:39;;;;;;;68.97;27.25;;;;;;;-148.88;100.00;-17125.47;4977856;28;20030;-86
2023/08/18 06:31:10;;;;;;;57.08;25.70;;;;;;;-148.88;100.00;-17125.47;4992622;28;20034;-86
2023/08/18 06:33:36;;;;;;;65.28;28.48;;;;;;;-148.88;100.00;-17125.47;4998858;28;20050;-86
2023/08/18 06:36:02;;;;;;;64.72;27.90;;;;;;;-148.88;100.00;-17125.47;5000963;28;20034;-87
2023/08/18 06:38:28;;;;;;;64.32;27.13;;;;;;;-148.88;100.00;-17125.47;5008394;28;20054;-84
2023/08/18 06:40:53;;;;;;;62.92;27.17;;;;;;;-148.88;100.00;-17125.47;4979614;28;20034;-84
2023/08/18 06:43:19;;;;;;;57.58;27.05;;;;;;;-148.88;100.00;-17125.47;4992980;28;20046;-85
2023/08/18 06:45:44;;;;;;;66.80;28.23;;;;;;;-148.88;100.00;-17125.47;4977407;28;20022;-85
2023/08/18 06:48:09;;;;;;;64.25;26.42;;;;;;;-148.88;100.00;-17125.47;4993285;28;20026;-85
2023/08/18 06:50:35;;;;;;;59.95;27.20;;;;;;;-148.88;100.00;-17125.47;4992178;28;20514;-86
2023/08/18 06:53:00;;;;;;;59.70;27.00;;;;;;;-148.88;100.00;-17125.47;4992114;28;20050;-87
2023/08/18 06:55:26;;;;;;;65.80;27.80;;;;;;;-148.88;100.00;-17125.47;4975865;28;20512;-86
2023/08/18 06:57:51;;;;;;;57.45;25.60;;;;;;;-148.88;100.00;-17125.47;4991807;28;20030;-85
2023/08/18 07:00:18;;;;;;;71.13;28.35;;;;;;;-148.88;100.00;-17125.47;4975747;28;20030;-85
2023/08/18 07:02:44;;;;;;;60.38;26.88;;;;;;;-148.88;100.00;-17125.47;4991883;28;20561;-85
2023/08/18 07:05:12;;;;;;;59.83;25.35;;;;;;;-148.88;100.00;-17125.47;4976104;28;20077;-85
2023/08/18 07:07:38;;;;;;;60.33;25.38;;;;;;;-148.88;100.00;-17125.47;4975892;28;20023;-86
2023/08/18 07:10:12;;;;;;;59.20;24.88;;;;;;;-148.88;100.00;-17125.47;4975415;28;20034;-86
2023/08/18 07:12:49;;;;;;;62.65;25.38;;;;;;;-148.88;100.00;-17125.47;4991598;28;20023;-87
2023/08/18 07:15:35;;;;;;;53.78;25.02;;;;;;;-148.88;100.00;-17125.47;4991328;28;20027;-87
2023/08/18 07:18:09;;;;;;;55.05;25.85;;;;;;;-148.88;100.00;-17125.47;4991623;28;20423;-86
2023/08/18 07:20:35;;;;;;;62.92;25.95;;;;;;;-148.88;100.00;-17125.47;4991696;28;20027;-86
2023/08/18 07:23:03;;;;;;;48.20;23.73;;;;;;;-148.88;100.00;-17125.47;4991678;28;20026;-86
2023/08/18 07:25:29;;;;;;;55.08;25.10;;;;;;;-148.88;100.00;-17125.47;4991741;28;20051;-86
2023/08/18 07:27:55;;;;;;;57.03;24.30;;;;;;;-148.88;100.00;-17125.47;4991148;28;20019;-88
2023/08/18 07:30:21;;;;;;;61.83;27.30;;;;;;;-148.88;100.00;-17125.47;4991292;28;20438;-89
2023/08/18 07:32:47;;;;;;;58.40;27.25;;;;;;;-148.88;100.00;-17125.47;4991949;28;20030;-88
2023/08/18 07:35:14;;;;;;;57.22;26.63;;;;;;;-148.88;100.00;-17125.47;4976676;28;20398;-87
2023/08/18 07:37:39;;;;;;;57.72;25.70;;;;;;;-148.88;100.00;-17125.47;4990505;28;20402;-87
2023/08/18 07:40:09;;;;;;;58.47;26.05;;;;;;;-148.88;100.00;-17125.47;4990927;28;20486;-86
2023/08/18 07:42:58;;;;;;;56.53;25.38;;;;;;;-148.88;100.00;-17125.47;4991456;28;20033;-87
2023/08/18 07:45:24;;;;;;;55.30;26.50;;;;;;;-148.88;100.00;-17125.47;4975877;28;20034;-87
2023/08/18 07:47:49;;;;;;;62.05;27.33;;;;;;;-148.88;100.00;-17125.47;4974813;28;20034;-87
2023/08/18 07:50:15;;;;;;;56.60;25.00;;;;;;;-148.88;100.00;-17125.47;4974838;28;20027;-85
2023/08/18 07:52:41;;;;;;;51.85;25.00;;;;;;;-148.88;100.00;-17125.47;4974718;28;20030;-87
2023/08/18 07:55:08;;;;;;;55.95;24.98;;;;;;;-148.88;100.00;-17125.47;4974650;28;20134;-87
2023/08/18 07:57:35;;;;;;;56.28;24.83;;;;;;;-148.88;100.00;-17125.47;4990746;28;20034;-87
2023/08/18 08:00:39;;;;;;;55.00;25.02;;;;;;;-148.88;100.00;-17125.47;4975566;28;20397;-87
2023/08/18 08:03:03;;;;;;;52.25;23.98;;;;;;;-148.88;100.00;-17125.47;4975600;28;20388;-88
2023/08/18 08:05:30;;;;;;;53.85;25.48;;;;;;;-148.88;100.00;-17125.47;4990128;28;20518;-87
2023/08/18 08:07:55;;;;;;;52.28;24.50;;;;;;;-148.88;100.00;-17125.47;4991971;28;20037;-85
2023/08/18 08:10:21;;;;;;;49.17;23.50;;;;;;;-148.88;100.00;-17125.47;4992150;28;20027;-86
2023/08/18 08:13:01;;;;;;;49.97;23.55;;;;;;;-148.88;100.00;-17125.47;4975411;28;20023;-88
2023/08/18 08:15:28;;;;;;;48.90;24.88;;;;;;;-148.88;100.00;-17125.47;4975607;28;20058;-87
2023/08/18 08:17:54;;;;;;;46.65;23.20;;;;;;;-148.88;100.00;-17125.47;4990196;28;20453;-85
2023/08/18 08:20:20;;;;;;;47.20;24.83;;;;;;;-148.88;100.00;-17125.47;4990945;28;20033;-87
2023/08/18 08:22:50;;;;;;;46.13;23.92;;;;;;;-148.88;100.00;-17125.47;4974432;28;20441;-87
2023/08/18 08:25:17;;;;;;;45.88;23.63;;;;;;;-148.88;100.00;-17125.47;4990368;28;20054;-89
2023/08/18 08:27:43;;;;;;;45.17;23.52;;;;;;;-148.88;100.00;-17125.47;4990591;28;20035;-86
2023/08/18 08:30:13;;;;;;;44.80;21.90;;;;;;;-148.88;100.00;-17125.47;4990793;28;20029;-86
2023/08/18 08:32:38;;;;;;;41.28;21.95;;;;;;;-148.88;100.00;-17125.47;4990769;28;20035;-85
2023/08/18 08:35:04;;;;;;;36.65;21.10;;;;;;;-148.88;100.00;-17125.47;4982382;28;20185;-87
2023/08/18 08:37:30;;;;;;;34.92;19.75;;;;;;;-148.88;100.00;-17125.47;4998861;28;20014;-87
2023/08/18 08:39:55;;;;;;;33.25;19.60;;;;;;;-148.88;100.00;-17125.47;5014658;28;20094;-87
2023/08/18 08:42:57;;;;;;;;;;;;;;;;;;;;;
2023/08/18 08:45:23;;;;;;;30.05;18.85;;;;;;;-148.88;100.00;-17125.47;4975545;28;20031;-87
2023/08/18 08:47:50;;;;;;;27.40;17.92;;;;;;;-148.88;100.00;-17125.47;4989420;28;20066;-88
2023/08/18 08:50:17;;;;;;;25.00;17.13;;;;;;;-148.88;100.00;-17125.47;4990219;28;20034;-89
2023/08/18 08:52:48;;;;;;;24.75;16.88;;;;;;;-148.88;100.00;-17125.47;4988099;28;20050;-88
2023/08/18 08:55:15;;;;;;;26.20;17.55;;;;;;;-148.88;100.00;-17125.47;4990111;28;20161;-89
2023/08/18 08:57:41;;;;;;;20.77;15.75;;;;;;;-148.88;100.00;-17125.47;4973743;28;20070;-88
2023/08/18 09:00:09;;;;;;;21.85;15.80;;;;;;;-148.88;100.00;-17125.47;4973698;28;20054;-89
2023/08/18 09:02:34;;;;;;;21.55;16.80;;;;;;;-148.88;100.00;-17125.47;4989734;28;20027;-89
2023/08/18 09:05:00;;;;;;;24.50;16.50;;;;;;;-148.88;100.00;-17125.47;4990034;28;20018;-90
2023/08/18 09:07:28;;;;;;;23.60;16.33;;;;;;;-148.88;100.00;-17125.47;4973557;28;20498;-89
2023/08/18 09:09:53;;;;;;;25.65;16.95;;;;;;;-148.88;100.00;-17125.47;4973735;28;20033;-89
2023/08/18 09:12:27;;;;;;;22.83;15.40;;;;;;;-148.88;100.00;-17125.47;4989687;28;20031;-89
2023/08/18 09:14:53;;;;;;;21.15;15.88;;;;;;;-148.88;100.00;-17125.47;4989589;28;20486;-88
2023/08/18 09:17:21;;;;;;;19.98;14.77;;;;;;;-148.88;100.00;-17125.47;4990036;28;20031;-89
2023/08/18 09:19:50;;;;;;;17.65;13.73;;;;;;;-148.88;100.00;-17125.47;4989678;28;20027;-89
2023/08/18 09:22:22;;;;;;;20.10;14.93;;;;;;;-148.88;100.00;-17125.47;4989490;28;20081;-89
2023/08/18 09:24:50;;;;;;;21.85;14.75;;;;;;;-148.88;100.00;-17125.47;4989953;28;20077;-89
2023/08/18 09:27:16;;;;;;;16.40;12.88;;;;;;;-148.88;100.00;-17125.47;4973745;28;20046;-90
2023/08/18 09:29:41;;;;;;;13.35;11.45;;;;;;;-148.88;100.00;-17125.47;4991183;28;20033;-88
2023/08/18 09:32:07;;;;;;;12.98;11.07;;;;;;;-148.88;100.00;-17125.47;4990107;28;20478;-92
2023/08/18 09:34:37;;;;;;;14.23;11.30;;;;;;;-148.88;100.00;-17125.47;4989952;28;20122;-90
2023/08/18 09:37:07;;;;;;;11.60;10.40;;;;;;;-148.88;100.00;-17125.47;4974253;28;20034;-91
2023/08/18 09:39:33;;;;;;;12.52;10.88;;;;;;;-148.88;100.00;-17125.47;4974240;28;20035;-89
2023/08/18 09:41:59;;;;;;;13.02;9.85;;;;;;;-148.88;100.00;-17125.47;4989633;28;20022;-89
2023/08/18 09:44:24;;;;;;;11.45;9.98;;;;;;;-148.88;100.00;-17125.47;4973801;28;20022;-89
2023/08/18 09:46:54;;;;;;;11.75;10.55;;;;;;;-148.88;100.00;-17125.47;4973495;28;20113;-87
2023/08/18 09:49:20;;;;;;;11.90;10.02;;;;;;;-148.88;100.00;-17125.47;4989829;28;20545;-89
2023/08/18 09:51:52;;;;;;;12.02;10.27;;;;;;;-148.88;100.00;-17125.47;4989602;28;20037;-89
2023/08/18 09:54:19;;;;;;;12.05;9.65;;;;;;;-148.88;100.00;-17125.47;4973555;28;20472;-89
2023/08/18 09:56:50;;;;;;;10.07;9.02;;;;;;;-148.88;100.00;-17125.47;4973491;28;20046;-89
2023/08/18 09:59:22;;;;;;;11.48;9.82;;;;;;;-148.88;100.00;-17125.47;4974487;28;20044;-90
2023/08/18 10:01:49;;;;;;;10.93;8.82;;;;;;;-148.88;100.00;-17125.47;4993345;28;20394;-87
2023/08/18 10:04:16;;;;;;;11.23;9.10;;;;;;;-148.88;100.00;-17125.47;4993262;28;20027;-89
2023/08/18 10:06:44;;;;;;;11.35;9.57;;;;;;;-148.88;100.00;-17125.47;4976804;28;20019;-89
2023/08/18 10:09:10;;;;;;;10.80;9.45;;;;;;;-148.88;100.00;-17125.47;4993351;28;20026;-88
2023/08/18 10:11:36;;;;;;;11.45;9.30;;;;;;;-148.88;100.00;-17125.47;4993894;28;20078;-88
2023/08/18 10:14:03;;;;;;;12.05;9.00;;;;;;;-148.88;100.00;-17125.47;4978546;28;20026;-87
2023/08/18 10:16:30;;;;;;;10.90;8.70;;;;;;;-148.88;100.00;-17125.47;4977115;28;20058;-88
2023/08/18 10:18:56;;;;;;;11.30;9.15;;;;;;;-148.88;100.00;-17125.47;4993654;28;20564;-88
2023/08/18 10:21:26;;;;;;;10.65;9.02;;;;;;;-148.88;100.00;-17125.47;4992724;28;20466;-87
2023/08/18 10:23:53;;;;;;;10.45;9.30;;;;;;;-148.88;100.00;-17125.47;4976520;28;20030;-87
2023/08/18 10:26:18;;;;;;;11.05;9.43;;;;;;;-148.88;100.00;-17125.47;4976481;28;20054;-88
2023/08/18 10:28:45;;;;;;;10.13;9.05;;;;;;;-148.88;100.00;-17125.47;4992662;28;20129;-86
2023/08/18 10:31:14;;;;;;;10.98;9.77;;;;;;;-148.88;100.00;-17125.47;4992566;28;20023;-88
2023/08/18 10:33:52;;;;;;;11.98;8.75;;;;;;;-148.88;100.00;-17125.47;4992778;28;20027;-89
2023/08/18 10:36:26;;;;;;;9.80;8.80;;;;;;;-148.88;100.00;-17125.47;4992388;28;20026;-89
2023/08/18 10:38:53;;;;;;;18.20;9.65;;;;;;;-148.88;100.00;-17125.47;4992712;28;20027;-89
2023/08/18 10:41:30;;;;;;;10.57;9.48;;;;;;;-148.88;100.00;-17125.47;4992496;28;20062;-89
2023/08/18 10:43:57;;;;;;;11.50;9.73;;;;;;;-148.88;99.55;-17125.47;4991974;28;20042;-88
2023/08/18 10:46:36;;;;;;;11.73;9.40;;;;;;;-148.88;97.83;-17125.47;4992464;28;20027;-88
2023/08/18 10:49:02;;;;;;;9.52;8.32;;;;;;;-148.88;99.71;-17125.47;4992208;28;20026;-89
2023/08/18 10:51:28;;;;;;;10.20;8.25;;;;;;;-148.88;98.42;-17125.47;4992314;28;20034;-88